Danbury, New Hampshire
Current Conditions -  °F | °C
As of 4:15 PM on Tuesday 25 Nov 2014 (Local Time) from K1P1 Reporting Station
Clear Clear  
Wind Chill: 48°   Ceiling: Unl
Heat Index: 48°   Visibility: 10mi
Dew Point: 31°   Wind: 3mph
Humidity: 51%   Direction: 300°WNW
Pressure: 29.89"   Gusts: NA
Location:  43.53°N, 71.86°W
Report Text: K1P1 252115Z AUTO 30003KT 10SM CLR 09/M01 A2989 RMK AO2 T00911007
Loading
Personal Weather Stations






























Interactive Weather Map New forecast layout! Learn more

10-Day Weather Forecast

Advertisements
Track Severe Weather on mobile